Time;durP1;ratioP1;P1;durP2;ratioP2;P2;SDS_P1;SDS_P2;PMS_P1;PMS_P2;Temp;Humidity;BMP_temperature;BMP_pressure;BME280_temperature;BME280_humidity;BME280_pressure;Samples;Min_cycle;Max_cycle;Signal;HPM_P1;HPM_P2
2022/03/16 00:00:05;;;;;;;71.60;49.63;;;;;;;8.29;87.81;101180.06;5027841;28;20406;-80
2022/03/16 00:02:30;;;;;;;64.87;46.63;;;;;;;8.29;87.59;101167.41;5058788;28;20946;-80
2022/03/16 00:04:56;;;;;;;70.40;48.43;;;;;;;8.31;87.43;101177.97;5028900;28;20407;-80
2022/03/16 00:07:22;;;;;;;80.18;51.83;;;;;;;8.28;87.38;101173.84;5026921;28;20425;-80
2022/03/16 00:09:48;;;;;;;74.37;50.83;;;;;;;8.26;87.45;101175.06;5027878;28;20453;-80
2022/03/16 00:12:14;;;;;;;76.80;51.70;;;;;;;8.22;87.66;101171.13;5015474;28;20911;-80
2022/03/16 00:14:41;;;;;;;75.80;51.88;;;;;;;8.19;87.68;101171.53;5027953;28;20447;-80
2022/03/16 00:17:07;;;;;;;69.40;48.33;;;;;;;8.21;87.61;101170.28;5037656;28;20411;-80
2022/03/16 00:19:32;;;;;;;72.82;49.70;;;;;;;8.22;87.61;101173.81;5059080;28;20557;-80
2022/03/16 00:21:59;;;;;;;73.88;50.88;;;;;;;8.23;87.29;101170.88;5025078;28;20490;-80
2022/03/16 00:24:25;;;;;;;80.73;53.73;;;;;;;8.23;87.52;101167.38;5026550;28;20421;-80
2022/03/16 00:26:51;;;;;;;78.57;52.40;;;;;;;8.24;87.71;101177.13;5027513;28;20410;-80
2022/03/16 00:29:16;;;;;;;86.47;54.13;;;;;;;8.19;87.15;101164.28;5028694;28;20414;-80
2022/03/16 00:31:42;;;;;;;81.15;53.97;;;;;;;8.18;87.36;101164.47;5026249;28;20450;-80
2022/03/16 00:34:07;;;;;;;88.43;55.37;;;;;;;8.19;87.12;101175.09;5059753;28;20402;-81
2022/03/16 00:36:32;;;;;;;89.43;55.60;;;;;;;8.19;87.51;101168.84;5023938;28;20984;-80
2022/03/16 00:38:57;;;;;;;94.80;57.03;;;;;;;8.12;87.48;101171.56;5026858;28;20418;-80
2022/03/16 00:41:23;;;;;;;90.10;56.60;;;;;;;8.09;87.64;101173.84;5026083;28;20422;-80
2022/03/16 00:43:48;;;;;;;90.60;57.33;;;;;;;8.03;87.56;101170.13;5027028;28;20426;-80
2022/03/16 00:46:13;;;;;;;88.90;57.23;;;;;;;8.02;88.25;101167.63;5026828;28;20433;-80
2022/03/16 00:48:39;;;;;;;89.70;58.30;;;;;;;8.04;88.14;101171.78;5025152;28;20510;-80
2022/03/16 00:51:04;;;;;;;101.93;58.77;;;;;;;8.08;87.88;101166.78;5025050;28;20433;-80
2022/03/16 00:53:33;;;;;;;97.63;59.43;;;;;;;8.11;88.09;101171.75;5026388;28;20976;-80
2022/03/16 00:55:59;;;;;;;92.07;56.03;;;;;;;8.11;87.79;101164.50;5056949;28;20929;-81
2022/03/16 00:58:27;;;;;;;96.03;58.10;;;;;;;8.07;88.05;101157.84;5026606;28;20446;-80
2022/03/16 01:00:53;;;;;;;103.35;60.58;;;;;;;8.09;87.88;101165.75;5026251;28;20407;-80
2022/03/16 01:03:18;;;;;;;92.35;56.63;;;;;;;8.10;88.36;101156.63;5023315;28;20917;-80
2022/03/16 01:05:44;;;;;;;90.60;57.13;;;;;;;8.11;87.89;101150.16;5021516;28;20448;-81
2022/03/16 01:08:09;;;;;;;90.00;58.78;;;;;;;8.08;87.75;101153.28;5024780;28;20939;-80
2022/03/16 01:10:34;;;;;;;92.27;57.93;;;;;;;8.10;88.23;101149.31;5041347;28;20417;-80
2022/03/16 01:13:00;;;;;;;98.63;59.20;;;;;;;8.11;87.68;101153.69;5025683;28;20442;-80
2022/03/16 01:15:25;;;;;;;101.85;59.97;;;;;;;8.12;87.90;101149.97;5025006;28;20407;-80
2022/03/16 01:17:51;;;;;;;94.27;58.33;;;;;;;8.16;88.10;101153.91;5024817;28;20415;-80
2022/03/16 01:20:17;;;;;;;91.43;58.55;;;;;;;8.19;87.96;101149.94;5024484;28;20441;-80
2022/03/16 01:22:42;;;;;;;93.30;58.15;;;;;;;8.16;87.90;101151.22;5025715;28;20481;-80
2022/03/16 01:25:08;;;;;;;86.00;55.30;;;;;;;8.23;87.61;101154.69;5024652;28;20403;-80
2022/03/16 01:27:33;;;;;;;91.27;56.70;;;;;;;8.17;87.13;101142.03;5025330;28;20398;-80
2022/03/16 01:29:58;;;;;;;89.25;57.20;;;;;;;8.16;87.04;101142.28;5027081;28;20431;-80
2022/03/16 01:32:24;;;;;;;92.37;56.87;;;;;;;8.17;87.46;101147.44;5024111;28;20853;-81
2022/03/16 01:34:49;;;;;;;86.57;54.50;;;;;;;8.20;87.42;101147.03;5025135;28;20415;-80
2022/03/16 01:37:14;;;;;;;78.23;53.00;;;;;;;8.25;87.44;101152.63;5025563;28;20422;-80
2022/03/16 01:39:40;;;;;;;80.25;54.50;;;;;;;8.29;86.24;101144.97;5025654;28;20783;-80
2022/03/16 01:42:05;;;;;;;87.67;55.20;;;;;;;8.29;86.99;101140.41;5025938;28;20417;-80
2022/03/16 01:44:46;;;;;;;89.40;56.20;;;;;;;8.30;86.44;101130.41;5025002;28;20812;-80
2022/03/16 01:47:13;;;;;;;86.57;56.00;;;;;;;8.28;86.84;101127.94;5025526;28;20444;-80
2022/03/16 01:49:39;;;;;;;85.93;56.87;;;;;;;8.25;86.79;101138.28;5025254;28;20425;-81
2022/03/16 01:52:06;;;;;;;86.00;56.20;;;;;;;8.22;86.34;101138.72;5024922;28;20406;-80
2022/03/16 01:54:31;;;;;;;90.75;57.65;;;;;;;8.20;86.40;101130.81;5024048;28;20932;-81
2022/03/16 01:56:56;;;;;;;89.13;55.67;;;;;;;8.16;86.27;101126.06;5024914;28;20411;-81
2022/03/16 01:59:22;;;;;;;98.75;60.00;;;;;;;8.15;87.07;101132.50;5022029;28;20422;-81
2022/03/16 02:01:47;;;;;;;110.70;60.77;;;;;;;8.07;87.18;101128.16;5024875;28;20414;-81
2022/03/16 02:04:12;;;;;;;114.90;62.90;;;;;;;8.06;87.51;101125.69;5010775;28;20904;-81
2022/03/16 02:06:40;;;;;;;107.93;61.50;;;;;;;8.09;87.46;101130.66;5023306;28;20451;-81
2022/03/16 02:09:06;;;;;;;100.20;58.70;;;;;;;8.08;87.86;101126.28;5024392;28;20427;-81
2022/03/16 02:11:31;;;;;;;114.07;61.60;;;;;;;8.04;87.54;101125.06;5025016;28;20415;-81
2022/03/16 02:13:57;;;;;;;106.07;61.67;;;;;;;8.01;87.71;101130.88;5024706;28;20772;-81
2022/03/16 02:16:22;;;;;;;109.95;62.63;;;;;;;7.98;87.98;101120.50;5024179;28;20886;-80
2022/03/16 02:18:47;;;;;;;122.90;65.87;;;;;;;7.90;88.45;101116.19;5055355;28;20415;-81
2022/03/16 02:21:15;;;;;;;113.40;64.20;;;;;;;7.90;88.43;101120.75;5024722;28;20430;-80
2022/03/16 02:23:40;;;;;;;126.43;65.93;;;;;;;7.92;88.77;101115.97;5025266;28;20529;-80
2022/03/16 02:26:06;;;;;;;139.93;69.77;;;;;;;7.86;88.61;101125.75;5024485;28;20539;-81
2022/03/16 02:28:31;;;;;;;145.50;70.83;;;;;;;7.83;89.01;101124.31;5025982;28;20890;-81
2022/03/16 02:30:59;;;;;;;137.27;70.43;;;;;;;7.82;88.93;101127.19;5021227;28;20418;-80
2022/03/16 02:33:25;;;;;;;141.37;71.93;;;;;;;7.74;89.18;101120.13;5023022;28;20461;-81
2022/03/16 02:35:50;;;;;;;136.30;69.43;;;;;;;7.74;89.53;101109.34;5056548;28;20419;-80
2022/03/16 02:38:16;;;;;;;144.00;70.60;;;;;;;7.73;88.95;101117.69;5056045;28;20422;-80
2022/03/16 02:40:41;;;;;;;143.57;70.00;;;;;;;7.72;89.58;101108.75;5016465;28;20416;-81
2022/03/16 02:43:06;;;;;;;155.73;73.53;;;;;;;7.77;89.61;101108.13;5024937;28;20418;-80
2022/03/16 02:45:32;;;;;;;137.73;69.33;;;;;;;7.73;89.52;101121.22;5021869;28;20755;-81
2022/03/16 02:47:57;;;;;;;148.00;72.15;;;;;;;7.75;89.62;101126.38;5026314;28;20414;-81
2022/03/16 02:50:23;;;;;;;130.43;69.33;;;;;;;7.84;89.22;101120.53;5027528;28;20876;-80
2022/03/16 02:52:48;;;;;;;139.27;69.33;;;;;;;7.79;89.43;101135.72;5019253;28;20402;-80
2022/03/16 02:55:13;;;;;;;153.23;70.78;;;;;;;7.83;89.29;101135.09;5025491;28;20498;-81
2022/03/16 02:57:40;;;;;;;147.83;72.53;;;;;;;7.81;89.42;101130.91;5029327;28;20508;-81
2022/03/16 03:00:08;;;;;;;139.65;68.90;;;;;;;7.78;89.40;101129.47;5025875;28;20417;-81
2022/03/16 03:02:33;;;;;;;136.80;69.45;;;;;;;7.80;89.51;101129.28;5026901;28;20401;-81
2022/03/16 03:04:59;;;;;;;139.48;69.00;;;;;;;7.82;89.15;101138.00;5026921;28;20411;-81
2022/03/16 03:07:24;;;;;;;137.90;68.37;;;;;;;7.81;89.60;101126.38;5028801;28;20422;-80
2022/03/16 03:09:52;;;;;;;127.60;67.03;;;;;;;7.83;89.65;101132.41;5028545;28;22083;-80
2022/03/16 03:12:18;;;;;;;123.38;66.55;;;;;;;7.87;89.64;101130.06;5028849;28;20407;-81
2022/03/16 03:14:43;;;;;;;130.20;67.40;;;;;;;7.84;88.83;101133.19;5027347;28;20417;-81
2022/03/16 03:17:09;;;;;;;127.73;66.33;;;;;;;7.83;89.06;101127.00;5028964;28;20497;-80
2022/03/16 03:19:34;;;;;;;141.43;67.43;;;;;;;7.84;88.99;101128.63;5036357;28;20754;-80
2022/03/16 03:22:00;;;;;;;130.13;65.82;;;;;;;7.90;88.62;101135.09;5028298;28;20403;-81
2022/03/16 03:24:25;;;;;;;131.07;66.57;;;;;;;7.88;88.00;101139.00;5026207;28;20559;-80
2022/03/16 03:26:50;;;;;;;131.85;66.50;;;;;;;7.80;88.66;101140.09;5025770;28;20424;-80
2022/03/16 03:29:16;;;;;;;135.97;66.40;;;;;;;7.84;88.71;101139.44;5027476;28;20422;-80
2022/03/16 03:31:42;;;;;;;149.93;67.87;;;;;;;7.83;88.56;101139.66;5028700;28;20546;-81
2022/03/16 03:34:07;;;;;;;150.37;68.90;;;;;;;7.84;89.21;101141.28;5025943;28;20514;-80
2022/03/16 03:36:32;;;;;;;153.77;69.45;;;;;;;7.79;89.21;101144.63;5027882;28;20422;-81
2022/03/16 03:38:58;;;;;;;127.20;64.77;;;;;;;7.81;89.25;101139.84;5027239;28;20483;-80
2022/03/16 03:41:23;;;;;;;126.30;64.07;;;;;;;7.87;89.03;101140.06;5028983;28;20403;-81
2022/03/16 03:43:49;;;;;;;137.37;67.27;;;;;;;7.90;88.53;101137.78;5027844;28;20435;-80
2022/03/16 03:46:14;;;;;;;116.73;62.30;;;;;;;7.92;89.13;101129.44;5059125;28;20403;-80
2022/03/16 03:48:40;;;;;;;136.70;67.07;;;;;;;7.90;88.68;101131.53;5024840;28;20613;-81
2022/03/16 03:51:05;;;;;;;122.53;62.90;;;;;;;7.89;88.67;101133.41;5028049;28;20405;-81
2022/03/16 03:53:30;;;;;;;137.30;66.10;;;;;;;7.88;89.15;101139.00;5058666;28;20410;-81
2022/03/16 03:55:55;;;;;;;138.03;65.17;;;;;;;7.88;88.49;101133.59;5027802;28;20411;-81
2022/03/16 03:58:21;;;;;;;130.13;64.83;;;;;;;7.83;89.37;101136.97;5025573;28;20447;-81
2022/03/16 04:00:46;;;;;;;121.87;62.30;;;;;;;7.89;89.05;101132.56;5026354;28;20403;-81
2022/03/16 04:03:12;;;;;;;115.33;60.67;;;;;;;7.92;88.64;101135.69;5058414;28;20411;-81
2022/03/16 04:05:37;;;;;;;111.53;60.10;;;;;;;7.95;88.57;101134.44;5027837;28;20427;-80
2022/03/16 04:08:02;;;;;;;119.00;60.77;;;;;;;7.95;88.15;101135.25;5027074;28;20934;-81
2022/03/16 04:10:28;;;;;;;120.63;59.97;;;;;;;7.92;88.13;101130.28;5027502;28;20476;-81
2022/03/16 04:12:53;;;;;;;114.57;59.73;;;;;;;7.93;88.24;101144.63;5014991;28;20415;-81
2022/03/16 04:15:20;;;;;;;105.67;57.07;;;;;;;7.98;88.14;101136.69;5026921;28;20458;-80
2022/03/16 04:17:45;;;;;;;117.22;60.17;;;;;;;7.95;87.67;101137.13;5026835;28;20553;-80
2022/03/16 04:20:11;;;;;;;134.50;62.67;;;;;;;7.89;87.86;101137.97;5026059;28;20517;-81
2022/03/16 04:22:36;;;;;;;134.50;62.33;;;;;;;7.84;88.46;101133.19;5027543;28;20411;-80
2022/03/16 04:25:03;;;;;;;141.97;64.17;;;;;;;7.83;88.58;101148.59;5025858;28;20410;-80
2022/03/16 04:27:29;;;;;;;134.80;63.00;;;;;;;7.83;88.79;101150.44;5027392;28;20395;-81
2022/03/16 04:29:54;;;;;;;119.35;60.70;;;;;;;7.86;88.90;101150.03;5026401;28;20470;-80
2022/03/16 04:32:19;;;;;;;115.00;59.30;;;;;;;7.90;88.40;101150.44;5026933;28;20763;-80
2022/03/16 04:34:45;;;;;;;119.93;59.50;;;;;;;7.87;88.93;101143.56;5026196;28;20501;-80
2022/03/16 04:37:10;;;;;;;119.03;59.93;;;;;;;7.89;88.62;101144.22;5026866;28;20508;-80
2022/03/16 04:39:36;;;;;;;114.33;59.60;;;;;;;7.91;88.55;101147.50;5025035;28;20414;-81
2022/03/16 04:42:01;;;;;;;119.82;60.00;;;;;;;7.87;88.08;101140.06;5023411;28;21054;-81
2022/03/16 04:44:27;;;;;;;114.07;58.67;;;;;;;7.84;88.19;101139.44;5026266;28;20442;-80
2022/03/16 04:46:52;;;;;;;116.97;58.83;;;;;;;7.89;88.58;101140.69;5033172;28;20415;-81
2022/03/16 04:49:17;;;;;;;108.97;57.90;;;;;;;7.88;88.38;101141.72;5023985;28;20918;-80
2022/03/16 04:51:43;;;;;;;121.82;59.63;;;;;;;7.80;88.20;101146.28;5024686;28;20433;-80
2022/03/16 04:54:08;;;;;;;117.03;59.57;;;;;;;7.77;88.36;101144.00;5054993;28;20940;-80
2022/03/16 04:56:36;;;;;;;123.10;60.50;;;;;;;7.78;88.18;101136.75;5021197;28;20527;-80
2022/03/16 04:59:03;;;;;;;117.80;58.70;;;;;;;7.79;88.66;101143.81;5022461;28;20407;-80
2022/03/16 05:01:28;;;;;;;116.32;59.28;;;;;;;7.81;88.84;101139.00;5020470;28;20512;-80
2022/03/16 05:03:53;;;;;;;103.07;55.72;;;;;;;7.81;88.73;101137.16;5057220;28;20494;-81
2022/03/16 05:06:19;;;;;;;101.07;55.13;;;;;;;7.81;88.47;101142.56;5021387;28;20427;-80
2022/03/16 05:08:47;;;;;;;99.65;53.70;;;;;;;7.83;88.07;101139.66;5023630;28;20501;-81
2022/03/16 05:11:13;;;;;;;98.10;54.57;;;;;;;7.77;88.18;101135.91;5022916;28;20494;-81
2022/03/16 05:13:38;;;;;;;95.33;54.07;;;;;;;7.81;87.80;101144.41;5023217;28;20505;-81
2022/03/16 05:16:06;;;;;;;103.23;56.47;;;;;;;7.81;87.82;101145.25;5020709;28;20411;-80
2022/03/16 05:18:31;;;;;;;92.13;53.30;;;;;;;7.82;87.76;101140.69;5021951;28;21190;-81
2022/03/16 05:20:57;;;;;;;93.05;53.92;;;;;;;7.84;87.78;101139.44;5022697;28;20502;-80
2022/03/16 05:23:22;;;;;;;92.47;52.43;;;;;;;7.83;87.96;101147.75;5021926;28;20486;-80
2022/03/16 05:25:47;;;;;;;93.70;52.87;;;;;;;7.76;87.99;101146.94;5022013;28;20894;-80
2022/03/16 05:28:13;;;;;;;94.07;54.03;;;;;;;7.78;87.96;101150.22;5022714;28;20405;-81
2022/03/16 05:30:38;;;;;;;90.33;52.27;;;;;;;7.72;87.88;101148.38;5023240;28;20415;-80
2022/03/16 05:33:03;;;;;;;96.90;54.60;;;;;;;7.70;87.70;101148.59;5017277;28;20541;-81
2022/03/16 05:35:29;;;;;;;92.50;52.40;;;;;;;7.67;88.20;101154.38;5018162;28;20505;-80
2022/03/16 05:37:55;;;;;;;96.97;54.20;;;;;;;7.66;87.99;101150.06;5022805;28;20423;-81
2022/03/16 05:40:20;;;;;;;94.53;52.93;;;;;;;7.67;88.83;101150.88;5021804;28;20469;-81
2022/03/16 05:42:46;;;;;;;90.40;53.43;;;;;;;7.62;88.39;101154.19;5021976;28;20450;-80
2022/03/16 05:45:12;;;;;;;91.07;52.53;;;;;;;7.58;88.23;101160.22;5021848;28;22091;-80
2022/03/16 05:47:37;;;;;;;84.65;50.95;;;;;;;7.61;88.47;101159.78;5019986;28;20770;-80
2022/03/16 05:50:03;;;;;;;81.87;49.23;;;;;;;7.63;88.39;101157.72;5021206;28;20456;-81
2022/03/16 05:52:29;;;;;;;78.67;49.00;;;;;;;7.66;88.36;101157.31;5021779;28;20774;-80
2022/03/16 05:54:56;;;;;;;76.05;47.80;;;;;;;7.72;87.24;101157.31;5020608;28;20459;-82
2022/03/16 05:57:22;;;;;;;77.10;48.28;;;;;;;7.70;87.61;101159.41;5018494;28;20541;-78
2022/03/16 05:59:48;;;;;;;80.10;50.43;;;;;;;7.72;87.28;101167.25;5018584;28;20800;-82
2022/03/16 06:02:14;;;;;;;73.75;46.42;;;;;;;7.74;87.69;101154.38;5053516;28;20844;-82
2022/03/16 06:04:40;;;;;;;76.38;48.28;;;;;;;7.73;87.33;101166.22;5019389;28;20419;-82
2022/03/16 06:07:06;;;;;;;78.90;48.78;;;;;;;7.76;87.81;101161.25;5020959;28;20426;-82
2022/03/16 06:09:32;;;;;;;79.77;51.60;;;;;;;7.78;87.59;101161.84;5021990;28;20430;-84
2022/03/16 06:11:58;;;;;;;65.93;44.97;;;;;;;7.85;87.71;101167.25;5017510;28;20928;-83
2022/03/16 06:14:24;;;;;;;67.55;45.47;;;;;;;7.91;87.27;101157.47;5020123;28;20446;-82
2022/03/16 06:16:50;;;;;;;65.90;45.33;;;;;;;7.79;87.09;101165.41;5019749;28;20909;-82
2022/03/16 06:19:15;;;;;;;67.57;44.83;;;;;;;7.78;87.61;101163.72;5017578;28;21458;-80
2022/03/16 06:21:41;;;;;;;62.45;43.92;;;;;;;7.89;86.85;101164.97;5021282;28;20414;-81
2022/03/16 06:24:06;;;;;;;68.00;45.43;;;;;;;7.88;86.91;101160.59;5019177;28;20417;-82
2022/03/16 06:26:32;;;;;;;63.70;43.90;;;;;;;7.86;86.25;101160.81;5017824;28;21601;-82
2022/03/16 06:28:57;;;;;;;66.97;44.50;;;;;;;7.80;86.93;101175.97;5018608;28;20774;-79
2022/03/16 06:31:22;;;;;;;58.93;42.33;;;;;;;7.93;86.64;101171.59;5016304;28;20574;-82
2022/03/16 06:33:48;;;;;;;58.53;41.73;;;;;;;7.98;86.47;101169.09;5016428;28;20415;-82
2022/03/16 06:36:13;;;;;;;59.73;41.53;;;;;;;8.04;85.78;101170.94;5018924;28;22443;-82
2022/03/16 06:38:38;;;;;;;55.50;41.07;;;;;;;8.09;85.50;101174.69;5020748;28;20433;-82
2022/03/16 06:41:05;;;;;;;57.00;41.38;;;;;;;8.11;84.79;101172.59;5019795;28;20751;-83
2022/03/16 06:43:30;;;;;;;58.53;41.30;;;;;;;8.18;85.22;101172.56;5019387;28;20845;-81
2022/03/16 06:45:55;;;;;;;55.08;39.45;;;;;;;8.23;84.38;101180.88;5019963;28;20414;-81
2022/03/16 06:48:23;;;;;;;55.07;41.07;;;;;;;8.25;84.92;101176.94;5020996;28;20451;-81
2022/03/16 06:50:49;;;;;;;57.70;40.63;;;;;;;8.22;84.50;101190.03;5020624;28;20414;-81
2022/03/16 06:53:14;;;;;;;53.80;39.97;;;;;;;8.24;84.42;101199.56;5022157;28;20407;-80
2022/03/16 06:55:39;;;;;;;52.92;40.20;;;;;;;8.29;83.96;101194.41;5023686;28;20415;-81
2022/03/16 06:58:04;;;;;;;53.00;39.13;;;;;;;8.29;84.02;101197.09;5021932;28;20941;-78
2022/03/16 07:00:30;;;;;;;56.90;39.80;;;;;;;8.33;84.10;101197.50;5019767;28;20413;-78
2022/03/16 07:02:58;;;;;;;53.17;39.20;;;;;;;8.41;83.82;101201.84;5023740;28;20414;-81
2022/03/16 07:05:29;;;;;;;52.53;39.30;;;;;;;8.50;83.15;101195.97;5054645;28;20414;-80
2022/03/16 07:07:56;;;;;;;50.00;37.85;;;;;;;8.47;83.36;101200.97;5022006;28;20434;-81
2022/03/16 07:10:22;;;;;;;52.08;38.10;;;;;;;8.57;82.96;101193.25;5036657;28;20417;-81
2022/03/16 07:12:47;;;;;;;49.67;37.90;;;;;;;8.62;82.10;101196.16;5031266;28;20403;-81
2022/03/16 07:15:13;;;;;;;49.95;37.05;;;;;;;8.60;81.94;101193.66;5034202;28;20406;-81
2022/03/16 07:17:39;;;;;;;47.75;36.72;;;;;;;8.58;83.13;101201.16;5034343;28;20514;-81
2022/03/16 07:20:06;;;;;;;48.37;36.90;;;;;;;8.66;82.37;101203.59;5031411;28;20415;-81
2022/03/16 07:22:32;;;;;;;51.50;37.85;;;;;;;8.68;82.13;101195.28;5037838;28;20439;-81
2022/03/16 07:24:58;;;;;;;50.90;38.15;;;;;;;8.74;82.23;101197.97;5021702;28;20434;-81
2022/03/16 07:27:23;;;;;;;52.07;38.27;;;;;;;8.74;81.89;101214.19;5032404;28;20415;-80
2022/03/16 07:29:49;;;;;;;49.23;38.33;;;;;;;8.73;81.95;101214.38;5021098;28;20430;-81
2022/03/16 07:32:14;;;;;;;49.93;38.17;;;;;;;8.67;81.93;101218.78;5024574;28;20890;-81
2022/03/16 07:34:39;;;;;;;52.20;39.43;;;;;;;8.60;81.91;101219.84;5016157;28;20421;-81
2022/03/16 07:37:04;;;;;;;51.07;38.33;;;;;;;8.56;82.65;101221.34;5021560;28;20421;-81
2022/03/16 07:39:30;;;;;;;51.67;37.87;;;;;;;8.61;82.15;101218.81;5015136;28;20505;-80
2022/03/16 07:41:55;;;;;;;49.27;37.17;;;;;;;8.69;82.26;101218.59;5022283;28;20509;-81
2022/03/16 07:44:20;;;;;;;48.23;36.33;;;;;;;8.68;81.88;101223.16;5032059;28;20423;-81
2022/03/16 07:46:46;;;;;;;50.08;38.20;;;;;;;8.74;82.09;101221.47;5045422;28;20407;-81
2022/03/16 07:49:11;;;;;;;49.47;37.47;;;;;;;8.88;81.38;101219.53;5018919;28;20887;-81
2022/03/16 07:51:36;;;;;;;52.40;38.53;;;;;;;8.87;80.97;101216.00;5016653;28;20406;-81
2022/03/16 07:54:01;;;;;;;49.07;37.53;;;;;;;8.98;80.98;101211.78;5021406;28;20882;-81
2022/03/16 07:56:27;;;;;;;50.42;38.92;;;;;;;9.00;80.63;101212.38;5017974;28;20418;-81
2022/03/16 07:58:53;;;;;;;51.30;38.03;;;;;;;9.08;80.57;101212.16;5017214;28;20418;-80
2022/03/16 08:01:19;;;;;;;48.85;37.65;;;;;;;9.17;80.67;101211.66;5010721;28;20770;-81
2022/03/16 08:03:44;;;;;;;52.63;39.90;;;;;;;9.09;80.80;101214.63;5016778;28;20421;-81
2022/03/16 08:06:10;;;;;;;51.27;38.33;;;;;;;9.14;80.70;101201.28;5013142;28;20427;-81
2022/03/16 08:08:39;;;;;;;48.60;37.03;;;;;;;9.15;80.41;101200.25;5012139;28;20909;-81
2022/03/16 08:11:07;;;;;;;47.35;36.90;;;;;;;9.25;80.19;101199.78;5011777;28;20415;-81
2022/03/16 08:13:34;;;;;;;49.55;38.63;;;;;;;9.35;80.08;101198.22;5016586;28;20502;-81
2022/03/16 08:15:59;;;;;;;49.42;38.13;;;;;;;9.51;79.96;101198.75;5014291;28;20482;-81
2022/03/16 08:18:24;;;;;;;48.90;37.70;;;;;;;9.67;79.00;101203.63;5017781;28;20995;-81
2022/03/16 08:20:49;;;;;;;49.78;38.70;;;;;;;9.74;79.07;101202.53;5012956;28;20433;-81
2022/03/16 08:23:15;;;;;;;50.87;38.77;;;;;;;9.72;78.87;101191.06;5014385;28;20412;-81
2022/03/16 08:25:40;;;;;;;48.90;39.17;;;;;;;9.66;78.86;101191.13;5009140;28;20427;-80
2022/03/16 08:28:06;;;;;;;48.67;38.23;;;;;;;9.69;79.13;101194.22;5010430;28;20418;-80
2022/03/16 08:30:31;;;;;;;46.70;37.90;;;;;;;9.84;78.42;101185.78;5009894;28;20414;-81
2022/03/16 08:32:56;;;;;;;48.03;37.83;;;;;;;9.97;78.21;101188.34;5011711;28;21546;-80
2022/03/16 08:35:23;;;;;;;48.27;37.87;;;;;;;10.05;77.83;101192.63;5011480;28;20426;-81
2022/03/16 08:37:48;;;;;;;47.22;38.45;;;;;;;10.22;77.87;101180.19;5015450;28;20425;-80
2022/03/16 08:40:16;;;;;;;49.73;39.07;;;;;;;10.32;77.73;101184.06;5012747;28;20870;-81
2022/03/16 08:42:43;;;;;;;48.77;38.47;;;;;;;10.50;77.16;101180.53;5007039;28;20487;-78
2022/03/16 08:45:08;;;;;;;46.78;37.55;;;;;;;10.59;76.45;101186.44;5016561;28;20446;-79
2022/03/16 08:47:34;;;;;;;46.35;37.30;;;;;;;10.63;76.78;101188.50;5023028;28;20442;-78
2022/03/16 08:49:59;;;;;;;50.57;37.97;;;;;;;10.60;76.42;101183.53;5018156;28;20436;-78
2022/03/16 08:52:24;;;;;;;47.57;36.93;;;;;;;10.78;76.02;101188.91;5020466;28;20928;-77
2022/03/16 08:54:50;;;;;;;49.87;38.87;;;;;;;11.02;75.88;101184.44;5019560;28;20407;-78
2022/03/16 08:57:16;;;;;;;52.80;38.97;;;;;;;11.22;75.27;101184.13;5021295;28;20506;-78
2022/03/16 08:59:41;;;;;;;46.55;37.40;;;;;;;11.26;74.90;101186.13;5020937;28;20415;-78
2022/03/16 09:02:07;;;;;;;52.33;39.10;;;;;;;11.18;75.20;101185.66;5020858;28;20472;-78
2022/03/16 09:04:34;;;;;;;54.88;40.22;;;;;;;11.26;75.31;101191.56;5023980;28;20874;-78
2022/03/16 09:06:59;;;;;;;50.58;39.50;;;;;;;11.10;75.51;101186.78;5020259;28;20426;-81
2022/03/16 09:09:25;;;;;;;54.87;41.67;;;;;;;11.10;76.25;101194.94;5022676;28;20427;-80
2022/03/16 09:11:50;;;;;;;55.25;40.78;;;;;;;11.15;75.97;101186.94;5021981;28;20420;-81
2022/03/16 09:14:16;;;;;;;54.33;40.17;;;;;;;11.20;76.08;101186.22;5021312;28;20468;-81
2022/03/16 09:16:41;;;;;;;56.00;40.90;;;;;;;11.39;75.76;101183.22;5010840;28;20429;-81
2022/03/16 09:19:07;;;;;;;56.40;40.00;;;;;;;11.57;75.49;101187.75;5010172;28;20414;-80
2022/03/16 09:21:32;;;;;;;59.47;42.20;;;;;;;11.48;74.95;101185.63;5017105;28;20767;-81
2022/03/16 09:23:59;;;;;;;56.87;41.33;;;;;;;11.46;75.65;101181.22;5015036;28;20813;-81
2022/03/16 09:26:25;;;;;;;58.83;41.63;;;;;;;11.66;74.97;101186.34;5015683;28;20501;-81
2022/03/16 09:28:52;;;;;;;59.17;41.67;;;;;;;11.59;75.03;101185.63;5043326;28;20767;-78
2022/03/16 09:31:17;;;;;;;64.05;43.35;;;;;;;11.48;75.26;101178.31;5011874;28;20422;-78
2022/03/16 09:33:43;;;;;;;54.38;39.88;;;;;;;11.68;74.77;101175.25;5022332;28;20407;-78
2022/03/16 09:36:08;;;;;;;56.93;40.73;;;;;;;11.79;73.90;101159.00;5018942;28;20454;-78
2022/03/16 09:38:35;;;;;;;60.77;42.23;;;;;;;11.82;74.17;101161.22;5015922;28;20631;-78
2022/03/16 09:41:02;;;;;;;59.80;39.67;;;;;;;11.99;74.27;101161.34;5021652;28;21036;-79
2022/03/16 09:43:30;;;;;;;63.45;42.25;;;;;;;12.21;73.04;101161.59;5021727;28;21027;-79
2022/03/16 09:46:28;;;;;;;58.85;39.92;;;;;;;12.74;71.51;101164.06;5019965;28;20403;-79
2022/03/16 09:48:54;;;;;;;53.92;40.67;;;;;;;12.67;70.87;101164.19;5010377;28;20425;-78
2022/03/16 09:51:20;;;;;;;56.87;39.27;;;;;;;12.60;71.17;101162.69;5011835;28;20454;-78
2022/03/16 09:53:46;;;;;;;54.22;39.72;;;;;;;12.80;71.21;101154.94;5021812;28;20438;-78
2022/03/16 09:56:14;;;;;;;53.25;39.83;;;;;;;13.14;69.55;101145.78;5022488;28;20411;-78
2022/03/16 09:58:41;;;;;;;51.63;38.22;;;;;;;13.46;68.58;101146.91;5021146;28;20465;-78
2022/03/16 10:01:07;;;;;;;50.97;39.95;;;;;;;13.93;67.41;101136.47;5022858;28;20418;-79
2022/03/16 10:03:32;;;;;;;46.27;36.47;;;;;;;14.38;65.65;101138.22;5022517;28;20414;-79
2022/03/16 10:05:59;;;;;;;48.80;37.03;;;;;;;14.55;64.57;101138.97;5021534;28;20403;-79
2022/03/16 10:08:33;;;;;;;44.90;35.43;;;;;;;14.82;63.93;101133.56;5021129;28;20918;-79
2022/03/16 10:14:14;;;;;;;47.55;36.92;;;;;;;15.31;61.71;101128.84;5021341;28;20794;-79
2022/03/16 10:19:50;;;;;;;48.85;36.50;;;;;;;15.18;61.61;101132.00;5019563;28;20402;-79
2022/03/16 10:22:26;;;;;;;44.20;35.40;;;;;;;15.22;61.75;101128.47;5018855;28;20419;-79
2022/03/16 10:25:08;;;;;;;46.85;35.72;;;;;;;15.72;59.85;101138.22;5013838;28;20395;-79
2022/03/16 10:27:39;;;;;;;42.05;34.80;;;;;;;16.03;59.42;101126.41;5019696;28;20663;-79
2022/03/16 10:30:06;;;;;;;42.13;33.67;;;;;;;16.38;57.99;101129.31;5017932;28;20426;-79
2022/03/16 10:32:35;;;;;;;44.33;34.08;;;;;;;16.39;58.22;101133.69;5012490;28;20419;-79
2022/03/16 10:35:05;;;;;;;40.85;32.75;;;;;;;16.59;57.26;101135.72;5018105;28;20411;-79
2022/03/16 10:37:34;;;;;;;44.20;34.85;;;;;;;16.47;57.48;101124.97;5049706;28;20400;-79
2022/03/16 10:40:00;;;;;;;47.30;33.53;;;;;;;16.24;58.31;101127.31;5045733;28;20416;-79
2022/03/16 10:48:22;;;;;;;40.03;32.85;;;;;;;16.21;58.10;101122.38;5013466;28;20481;-79
2022/03/16 10:50:55;;;;;;;40.40;32.17;;;;;;;16.25;58.35;101118.84;5043559;28;20593;-80
2022/03/16 10:53:25;;;;;;;38.85;30.77;;;;;;;16.55;57.29;101119.03;5011962;28;21016;-80
2022/03/16 10:55:51;;;;;;;38.58;31.00;;;;;;;16.16;58.28;101120.47;5013527;28;20498;-80
2022/03/16 10:58:18;;;;;;;38.03;33.00;;;;;;;16.36;58.17;101115.09;5012203;28;20422;-79
2022/03/16 11:00:44;;;;;;;40.35;31.15;;;;;;;16.64;57.33;101113.00;5012072;28;22628;-80
2022/03/16 11:03:15;;;;;;;41.78;32.17;;;;;;;16.75;56.56;101115.53;5016432;28;20422;-81
2022/03/16 11:05:42;;;;;;;38.73;30.47;;;;;;;16.73;56.78;101104.00;5012312;28;20486;-80
2022/03/16 11:08:09;;;;;;;37.08;30.17;;;;;;;16.55;57.47;101113.53;5012477;28;20438;-80
2022/03/16 11:10:39;;;;;;;41.30;30.83;;;;;;;16.05;58.57;101108.63;5016567;28;20483;-80
2022/03/16 11:15:54;;;;;;;38.20;31.10;;;;;;;15.29;60.85;101112.72;5017133;28;20944;-81
2022/03/16 11:18:22;;;;;;;37.45;30.48;;;;;;;14.72;62.60;101111.63;5018637;28;20459;-80
2022/03/16 11:20:49;;;;;;;35.53;29.73;;;;;;;14.98;62.86;101111.59;5018992;28;20505;-80